Time;durP1;ratioP1;P1;durP2;ratioP2;P2;SDS_P1;SDS_P2;PMS_P1;PMS_P2;Temp;Humidity;BMP_temperature;BMP_pressure;BME280_temperature;BME280_humidity;BME280_pressure;Samples;Min_cycle;Max_cycle;Signal;HPM_P1;HPM_P2
2022/09/24 00:01:11;;;;;;;15.13;12.88;;;15.20;83.60;;;;;;5114872;28;20019;-43
2022/09/24 00:03:38;;;;;;;14.10;11.90;;;15.30;83.70;;;;;;5133083;28;20110;-43
2022/09/24 00:06:04;;;;;;;14.75;11.35;;;15.30;83.80;;;;;;5133857;28;20068;-38
2022/09/24 00:08:31;;;;;;;15.93;12.82;;;15.20;83.70;;;;;;5114707;28;20019;-42
2022/09/24 00:11:02;;;;;;;17.13;12.80;;;15.20;83.80;;;;;;5133220;28;20019;-42
2022/09/24 00:13:27;;;;;;;16.23;12.65;;;15.20;83.90;;;;;;5133146;28;20042;-44
2022/09/24 00:15:53;;;;;;;15.48;13.02;;;15.20;84.00;;;;;;5132987;28;20028;-39
2022/09/24 00:18:20;;;;;;;14.88;13.02;;;15.20;84.10;;;;;;5133434;28;20027;-38
2022/09/24 00:20:46;;;;;;;15.35;12.75;;;15.20;84.20;;;;;;5133164;28;20514;-42
2022/09/24 00:23:12;;;;;;;17.33;13.65;;;15.20;84.20;;;;;;5132892;28;20091;-42
2022/09/24 00:28:31;;;;;;;17.35;13.60;;;15.10;84.40;;;;;;5133336;27;20034;-42
2022/09/24 00:30:57;;;;;;;16.27;11.55;;;15.10;84.30;;;;;;5136122;27;20019;-40
2022/09/24 00:33:25;;;;;;;17.33;13.77;;;15.10;84.40;;;;;;5136816;27;20030;-37
2022/09/24 00:35:51;;;;;;;15.10;13.05;;;15.10;84.50;;;;;;5136616;27;20050;-40
2022/09/24 00:38:18;;;;;;;16.83;13.52;;;15.10;84.50;;;;;;5136677;27;20027;-42
2022/09/24 00:40:43;;;;;;;14.55;12.45;;;15.10;84.60;;;;;;5136510;27;20023;-43
2022/09/24 00:43:45;;;;;;;16.42;12.65;;;15.10;84.60;;;;;;5136446;27;20026;-43
2022/09/24 00:46:25;;;;;;;13.77;12.07;;;15.10;84.60;;;;;;5033294;28;20026;-43
2022/09/24 00:48:56;;;;;;;15.18;12.38;;;15.10;84.60;;;;;;5125569;27;20031;-40
2022/09/24 00:51:25;;;;;;;16.15;12.80;;;15.10;84.60;;;;;;5117591;27;20019;-44
2022/09/24 00:53:55;;;;;;;17.30;12.85;;;15.10;84.70;;;;;;5136068;27;20017;-43
2022/09/24 00:56:22;;;;;;;15.18;12.90;;;15.10;84.80;;;;;;5136052;27;20020;-43
2022/09/24 00:58:51;;;;;;;13.60;12.13;;;15.10;84.80;;;;;;5136063;27;20051;-44
2022/09/24 01:01:19;;;;;;;15.63;12.57;;;15.10;84.90;;;;;;5136117;27;20110;-44
2022/09/24 01:03:46;;;;;;;15.45;13.13;;;15.10;85.00;;;;;;5136250;27;20023;-43
2022/09/24 01:06:12;;;;;;;15.90;12.90;;;15.10;85.00;;;;;;5136223;27;20460;-41
2022/09/24 01:08:39;;;;;;;16.67;12.65;;;15.10;85.00;;;;;;5117696;27;20019;-42
2022/09/24 01:11:39;;;;;;;18.05;13.75;;;15.10;85.00;;;;;;5136113;27;20023;-41
2022/09/24 01:14:12;;;;;;;16.67;13.52;;;15.10;85.00;;;;;;5102494;27;20092;-43
2022/09/24 01:16:45;;;;;;;17.40;13.25;;;15.00;85.00;;;;;;5135592;27;20055;-42
2022/09/24 01:19:29;;;;;;;18.13;14.32;;;15.00;85.00;;;;;;5135847;27;20026;-43
2022/09/24 01:22:10;;;;;;;16.17;13.88;;;15.00;85.00;;;;;;5135699;27;20423;-43
2022/09/24 01:24:55;;;;;;;18.42;14.27;;;15.00;85.00;;;;;;5135440;27;20166;-40
2022/09/24 01:27:37;;;;;;;16.92;14.05;;;15.00;85.10;;;;;;5135629;27;20060;-41
2022/09/24 01:30:11;;;;;;;17.75;14.25;;;15.00;85.10;;;;;;5135789;27;20459;-42
2022/09/24 01:33:00;;;;;;;17.23;13.68;;;15.00;85.10;;;;;;5135682;27;20023;-41
2022/09/24 01:35:36;;;;;;;18.98;14.60;;;15.00;85.20;;;;;;5135527;27;20027;-44
2022/09/24 01:38:07;;;;;;;19.17;15.63;;;15.00;85.30;;;;;;5135603;27;20057;-43
2022/09/24 01:40:35;;;;;;;17.45;14.27;;;15.00;85.30;;;;;;5134799;27;20378;-44
2022/09/24 01:43:04;;;;;;;18.08;15.02;;;14.90;85.90;;;;;;5134796;27;20031;-42
2022/09/24 01:45:31;;;;;;;17.42;14.02;;;14.90;85.30;;;;;;5134939;27;20031;-43
2022/09/24 01:48:02;;;;;;;19.35;14.82;;;15.00;85.40;;;;;;5135100;27;20023;-39
2022/09/24 01:50:33;;;;;;;18.38;14.70;;;15.00;85.40;;;;;;5135099;27;20587;-38
2022/09/24 01:52:58;;;;;;;17.17;14.55;;;15.00;85.50;;;;;;5134813;27;20023;-39
2022/09/24 01:55:27;;;;;;;19.80;15.57;;;15.00;85.50;;;;;;5134833;27;20026;-39
2022/09/24 01:58:02;;;;;;;21.17;15.75;;;15.00;85.50;;;;;;5134823;27;20168;-42
2022/09/24 02:00:28;;;;;;;19.15;15.27;;;15.00;85.50;;;;;;5116338;27;20551;-43
2022/09/24 02:03:03;;;;;;;19.10;15.60;;;15.00;85.50;;;;;;5134845;27;20019;-41
2022/09/24 02:05:48;;;;;;;19.40;14.77;;;15.00;85.50;;;;;;5135140;27;20477;-42
2022/09/24 02:08:22;;;;;;;17.05;14.20;;;15.00;85.60;;;;;;5134606;27;20064;-43
2022/09/24 02:10:59;;;;;;;17.35;14.88;;;15.00;85.50;;;;;;5134934;27;20025;-40
2022/09/24 02:13:26;;;;;;;18.45;14.57;;;15.00;85.50;;;;;;5116768;27;20036;-43
2022/09/24 02:15:57;;;;;;;18.50;14.93;;;15.00;85.50;;;;;;5116185;27;20030;-39
2022/09/24 02:18:30;;;;;;;19.05;15.50;;;14.90;86.20;;;;;;5134539;27;20072;-41
2022/09/24 02:20:58;;;;;;;17.92;15.07;;;14.90;85.50;;;;;;5134064;27;20531;-42
2022/09/24 02:23:27;;;;;;;18.05;14.68;;;14.90;85.50;;;;;;5134156;27;20115;-40
2022/09/24 02:25:57;;;;;;;19.20;13.82;;;14.90;85.50;;;;;;5115607;27;20374;-42
2022/09/24 02:28:23;;;;;;;18.00;13.98;;;14.90;85.60;;;;;;5134100;27;20019;-43
2022/09/24 02:31:18;;;;;;;18.48;14.63;;;14.90;85.50;;;;;;5098768;27;20402;-42
2022/09/24 02:36:33;;;;;;;18.45;14.75;;;14.80;85.70;;;;;;5133928;27;20042;-43
2022/09/24 02:38:59;;;;;;;17.27;13.85;;;14.80;85.70;;;;;;5134102;27;20102;-41
2022/09/24 02:41:25;;;;;;;16.25;13.13;;;14.80;85.70;;;;;;5134114;27;20419;-42
2022/09/24 02:43:51;;;;;;;17.40;14.10;;;14.80;85.70;;;;;;5133691;27;20428;-42
2022/09/24 02:46:17;;;;;;;16.77;13.23;;;14.80;85.60;;;;;;5133542;27;20019;-40
2022/09/24 02:48:43;;;;;;;16.45;13.43;;;14.90;85.70;;;;;;5133879;27;20095;-42
2022/09/24 02:51:09;;;;;;;18.45;13.60;;;14.80;85.70;;;;;;5133507;27;20047;-41
2022/09/24 02:53:35;;;;;;;15.43;12.65;;;14.80;85.70;;;;;;5133024;27;20400;-43
2022/09/24 02:56:02;;;;;;;14.88;12.73;;;14.90;85.70;;;;;;5133494;27;20449;-40
2022/09/24 02:58:28;;;;;;;15.60;12.90;;;14.90;85.70;;;;;;5133294;27;20078;-39
2022/09/24 03:00:56;;;;;;;14.13;11.88;;;14.90;85.70;;;;;;5133484;27;20030;-43
2022/09/24 03:03:22;;;;;;;15.32;11.98;;;14.90;85.70;;;;;;5133286;27;20035;-43
2022/09/24 03:05:51;;;;;;;14.32;11.90;;;14.90;85.70;;;;;;5133744;27;20015;-43
2022/09/24 03:08:18;;;;;;;15.05;12.30;;;14.80;85.70;;;;;;5133684;28;20431;-43
2022/09/24 03:10:43;;;;;;;14.38;12.10;;;14.80;85.60;;;;;;5133588;27;20024;-43
2022/09/24 03:13:10;;;;;;;15.07;11.57;;;14.80;85.70;;;;;;5134098;27;20412;-41
2022/09/24 03:15:35;;;;;;;13.20;10.90;;;14.80;85.70;;;;;;5133534;28;20019;-42
2022/09/24 03:18:02;;;;;;;13.95;11.52;;;14.90;85.70;;;;;;5133472;28;20068;-42
2022/09/24 03:20:28;;;;;;;14.73;10.70;;;14.80;85.60;;;;;;5133231;28;20019;-41
2022/09/24 03:22:53;;;;;;;13.18;10.98;;;14.80;85.60;;;;;;5133671;28;20023;-43
2022/09/24 03:25:20;;;;;;;13.45;10.55;;;14.80;85.60;;;;;;5133318;28;20135;-41
2022/09/24 03:27:45;;;;;;;10.80;9.60;;;14.80;85.60;;;;;;5133275;28;20031;-41
2022/09/24 03:32:56;;;;;;;12.27;10.43;;;14.80;85.50;;;;;;5133605;28;20393;-42
2022/09/24 03:35:22;;;;;;;13.10;9.93;;;14.80;85.60;;;;;;5133487;28;20111;-39
2022/09/24 03:37:48;;;;;;;11.63;9.68;;;14.80;85.60;;;;;;5133554;28;20027;-42
2022/09/24 03:40:13;;;;;;;14.02;9.70;;;14.80;85.60;;;;;;5133597;28;20080;-41
2022/09/24 03:42:39;;;;;;;12.82;9.45;;;14.80;85.60;;;;;;5133290;28;20136;-41
2022/09/24 03:45:05;;;;;;;12.13;9.98;;;14.80;85.60;;;;;;5133231;28;20029;-40
2022/09/24 03:47:32;;;;;;;11.90;9.55;;;14.80;85.60;;;;;;5133429;28;20024;-45
2022/09/24 03:49:57;;;;;;;12.25;9.70;;;14.80;85.50;;;;;;5133369;28;20019;-43
2022/09/24 03:52:25;;;;;;;10.52;9.05;;;14.70;85.50;;;;;;5133407;28;20380;-42
2022/09/24 03:54:50;;;;;;;11.57;9.00;;;14.80;85.50;;;;;;5133346;28;20023;-41
2022/09/24 03:57:16;;;;;;;11.85;9.60;;;14.70;85.60;;;;;;5133047;28;20051;-42
2022/09/24 03:59:43;;;;;;;12.10;9.57;;;14.80;85.60;;;;;;5132979;28;20023;-42
2022/09/24 04:02:10;;;;;;;13.20;10.18;;;14.70;85.60;;;;;;5133002;28;20390;-44
2022/09/24 04:04:36;;;;;;;13.32;9.63;;;14.70;85.50;;;;;;5136190;27;20505;-43
2022/09/24 04:07:02;;;;;;;11.48;9.35;;;14.70;85.60;;;;;;5136918;27;20056;-40
2022/09/24 04:09:28;;;;;;;11.82;9.60;;;14.70;85.60;;;;;;5137147;27;20076;-42
2022/09/24 04:11:53;;;;;;;11.10;9.32;;;14.70;85.60;;;;;;5136910;27;20126;-43
2022/09/24 04:14:19;;;;;;;13.52;10.05;;;14.70;85.60;;;;;;5137325;27;20027;-42
2022/09/24 04:16:45;;;;;;;12.68;9.65;;;14.70;85.60;;;;;;5137021;27;20034;-42
2022/09/24 04:19:14;;;;;;;10.35;8.70;;;14.70;85.60;;;;;;5118594;27;20019;-42
2022/09/24 04:21:41;;;;;;;11.45;8.75;;;14.70;85.60;;;;;;5136550;27;20023;-42
2022/09/24 04:24:06;;;;;;;11.63;9.85;;;14.70;85.60;;;;;;5136704;27;20042;-42
2022/09/24 04:26:32;;;;;;;10.48;9.27;;;14.70;85.60;;;;;;5136481;27;20034;-43
2022/09/24 04:28:58;;;;;;;10.93;9.57;;;14.70;85.60;;;;;;5136338;27;20011;-41
2022/09/24 04:31:25;;;;;;;11.52;9.45;;;14.70;85.60;;;;;;5136538;27;20007;-42
2022/09/24 04:33:52;;;;;;;12.05;9.82;;;14.70;85.60;;;;;;5136324;27;20108;-37
2022/09/24 04:36:17;;;;;;;12.07;10.00;;;14.70;85.60;;;;;;5136653;27;20027;-43
2022/09/24 04:38:45;;;;;;;10.90;9.52;;;14.70;85.50;;;;;;5117888;27;20038;-43
2022/09/24 04:41:11;;;;;;;13.02;9.75;;;14.70;85.60;;;;;;5136506;27;20027;-42
2022/09/24 04:43:37;;;;;;;12.07;9.88;;;14.70;85.60;;;;;;5136594;27;20514;-41
2022/09/24 04:46:03;;;;;;;12.80;10.20;;;14.70;86.30;;;;;;5136256;27;20127;-42
2022/09/24 04:48:29;;;;;;;12.38;9.90;;;14.70;85.70;;;;;;5136202;27;20020;-40
2022/09/24 04:50:55;;;;;;;11.75;9.30;;;14.70;85.70;;;;;;5136048;27;20019;-41
2022/09/24 04:53:22;;;;;;;11.25;9.60;;;14.70;85.70;;;;;;5136207;27;20094;-37
2022/09/24 04:55:47;;;;;;;13.75;10.38;;;14.70;85.70;;;;;;5135829;27;20022;-42
2022/09/24 04:58:13;;;;;;;10.85;9.68;;;14.70;85.70;;;;;;5117372;27;20031;-42
2022/09/24 05:00:39;;;;;;;13.25;9.85;;;14.70;85.60;;;;;;5136347;27;20065;-43
2022/09/24 05:03:05;;;;;;;12.23;10.50;;;14.70;85.70;;;;;;5136126;27;20046;-41
2022/09/24 05:05:32;;;;;;;12.23;9.93;;;14.70;85.70;;;;;;5136039;27;20022;-42
2022/09/24 05:07:58;;;;;;;13.90;10.45;;;14.70;86.00;;;;;;5136175;27;20011;-44
2022/09/24 05:10:24;;;;;;;11.40;9.77;;;14.70;85.70;;;;;;5136349;27;20019;-40
2022/09/24 05:12:50;;;;;;;12.40;10.20;;;14.70;85.70;;;;;;5135781;27;20019;-43
2022/09/24 05:15:18;;;;;;;11.32;9.88;;;14.70;85.70;;;;;;5135463;27;20030;-40
2022/09/24 05:17:44;;;;;;;11.63;9.63;;;14.70;85.70;;;;;;5135809;27;20054;-41
2022/09/24 05:20:10;;;;;;;12.18;9.88;;;14.70;85.70;;;;;;5135382;27;20023;-41
2022/09/24 05:22:39;;;;;;;14.98;10.05;;;14.70;85.70;;;;;;5135815;27;20025;-42
2022/09/24 05:25:05;;;;;;;12.98;10.35;;;14.70;85.70;;;;;;5135552;27;20023;-41
2022/09/24 05:27:31;;;;;;;11.18;9.70;;;14.70;85.70;;;;;;5135957;27;20452;-40
2022/09/24 05:29:56;;;;;;;13.00;10.88;;;14.70;85.70;;;;;;5135505;27;20023;-40
2022/09/24 05:32:22;;;;;;;14.82;10.82;;;14.70;85.70;;;;;;5136000;27;20046;-43
2022/09/24 05:34:49;;;;;;;13.65;11.38;;;14.70;85.80;;;;;;5135611;27;20022;-42
2022/09/24 05:37:15;;;;;;;12.98;10.48;;;14.70;85.70;;;;;;5116762;27;20042;-42
2022/09/24 05:39:41;;;;;;;12.75;10.80;;;14.70;85.70;;;;;;5116654;27;20027;-42
2022/09/24 05:42:14;;;;;;;12.68;10.43;;;14.70;85.70;;;;;;5135517;27;20034;-39
2022/09/24 05:44:41;;;;;;;13.70;10.85;;;14.70;85.70;;;;;;5134977;27;20098;-41
2022/09/24 05:47:07;;;;;;;13.52;10.40;;;14.70;85.70;;;;;;5135380;27;20530;-43
2022/09/24 05:49:33;;;;;;;12.75;10.70;;;14.70;85.70;;;;;;5135604;27;20340;-42
2022/09/24 05:51:59;;;;;;;13.07;10.45;;;14.70;85.80;;;;;;5135413;27;20098;-41
2022/09/24 05:54:25;;;;;;;14.07;10.45;;;14.70;85.70;;;;;;5134946;27;20459;-40
2022/09/24 05:56:50;;;;;;;12.63;10.02;;;14.70;85.70;;;;;;5134818;27;20050;-38
2022/09/24 05:59:16;;;;;;;13.48;10.27;;;14.70;85.70;;;;;;5134962;27;20039;-40
2022/09/24 06:01:42;;;;;;;11.98;10.43;;;14.70;85.70;;;;;;5135063;27;20415;-41
2022/09/24 06:04:09;;;;;;;12.32;10.52;;;14.70;85.70;;;;;;5116087;27;20106;-45
2022/09/24 06:06:34;;;;;;;11.75;10.07;;;14.70;85.70;;;;;;5134424;27;20027;-41
2022/09/24 06:09:00;;;;;;;12.25;9.93;;;14.70;85.70;;;;;;5116380;27;20514;-41
2022/09/24 06:11:26;;;;;;;15.27;9.90;;;14.70;85.70;;;;;;5134290;27;20028;-41
2022/09/24 06:13:52;;;;;;;12.55;9.55;;;14.70;85.70;;;;;;5134480;27;20098;-39
2022/09/24 06:16:18;;;;;;;10.60;9.25;;;14.70;85.70;;;;;;5134290;27;20526;-41
2022/09/24 06:18:44;;;;;;;12.60;10.40;;;14.70;85.70;;;;;;5134504;27;20027;-41
2022/09/24 06:21:12;;;;;;;10.57;9.27;;;14.70;85.70;;;;;;5134663;27;20515;-36
2022/09/24 06:23:38;;;;;;;13.82;10.00;;;14.70;85.70;;;;;;5134434;27;20015;-34
2022/09/24 06:26:06;;;;;;;12.73;9.52;;;14.70;85.70;;;;;;5134147;27;20011;-37
2022/09/24 06:28:33;;;;;;;11.43;10.23;;;14.80;85.70;;;;;;5133689;27;20023;-28
2022/09/24 06:30:59;;;;;;;11.85;10.07;;;14.80;85.60;;;;;;5134362;27;20026;-27
2022/09/24 06:33:25;;;;;;;11.60;9.88;;;14.80;85.60;;;;;;5134264;27;20008;-27
2022/09/24 06:35:51;;;;;;;11.93;9.88;;;14.80;85.60;;;;;;5133957;27;20045;-27
2022/09/24 06:38:18;;;;;;;12.35;10.40;;;14.80;85.70;;;;;;5133949;27;20019;-28
2022/09/24 06:40:45;;;;;;;12.80;10.10;;;14.80;85.70;;;;;;5133921;27;20058;-28
2022/09/24 06:43:12;;;;;;;12.88;10.30;;;14.80;85.70;;;;;;5134059;27;20050;-28
2022/09/24 06:45:40;;;;;;;12.93;10.00;;;14.80;85.60;;;;;;5133910;27;20102;-30
2022/09/24 06:48:06;;;;;;;12.82;11.10;;;14.80;85.70;;;;;;5134225;27;20027;-28
2022/09/24 06:50:33;;;;;;;14.50;11.00;;;14.80;85.70;;;;;;5133957;27;20515;-27
2022/09/24 06:52:59;;;;;;;13.63;11.07;;;14.80;85.70;;;;;;5134126;27;20090;-28
2022/09/24 06:55:25;;;;;;;12.13;10.65;;;14.80;85.70;;;;;;5133744;27;20058;-27
2022/09/24 06:58:01;;;;;;;12.18;10.20;;;14.80;85.70;;;;;;5133660;27;20050;-27
2022/09/24 07:00:27;;;;;;;12.77;10.15;;;14.80;85.70;;;;;;5115370;27;20015;-27
2022/09/24 07:02:52;;;;;;;12.98;10.82;;;14.90;85.70;;;;;;5133864;27;20099;-27
2022/09/24 07:05:18;;;;;;;14.85;11.07;;;14.90;85.70;;;;;;5133514;27;20073;-28
2022/09/24 07:07:43;;;;;;;13.70;11.43;;;14.90;85.70;;;;;;5134083;27;20024;-27
2022/09/24 07:10:09;;;;;;;14.48;10.82;;;14.90;85.80;;;;;;5134099;27;20073;-27
2022/09/24 07:12:35;;;;;;;13.50;11.20;;;14.90;85.80;;;;;;5133730;27;20454;-27
2022/09/24 07:15:01;;;;;;;13.68;11.70;;;14.90;85.80;;;;;;5133904;27;20092;-27
2022/09/24 07:17:27;;;;;;;14.48;12.05;;;14.90;85.90;;;;;;5115329;28;20389;-28
2022/09/24 07:19:54;;;;;;;14.45;12.13;;;14.90;85.90;;;;;;5134202;28;20096;-29
2022/09/24 07:22:20;;;;;;;15.50;11.65;;;14.90;86.00;;;;;;5133988;28;20026;-29
2022/09/24 07:24:46;;;;;;;14.70;11.40;;;14.90;86.00;;;;;;5133424;28;20100;-30
2022/09/24 07:27:12;;;;;;;16.98;11.88;;;14.90;86.00;;;;;;5134174;28;20031;-26
2022/09/24 07:29:38;;;;;;;14.02;11.48;;;14.90;86.00;;;;;;5133560;28;20022;-27
2022/09/24 07:32:04;;;;;;;15.00;11.43;;;14.90;86.00;;;;;;5133572;28;20027;-29
2022/09/24 07:34:30;;;;;;;14.65;12.05;;;14.80;86.00;;;;;;5133538;28;20054;-27
2022/09/24 07:36:55;;;;;;;14.13;11.95;;;14.90;86.10;;;;;;5133529;27;20034;-28
2022/09/24 07:39:25;;;;;;;12.13;10.45;;;14.90;86.10;;;;;;5136394;27;20352;-28
2022/09/24 07:41:51;;;;;;;14.73;12.07;;;14.90;86.10;;;;;;5138261;27;20478;-29
2022/09/24 07:44:19;;;;;;;13.68;11.40;;;14.80;86.20;;;;;;5137764;27;20036;-28
2022/09/24 07:46:47;;;;;;;13.15;11.18;;;14.90;86.20;;;;;;5137438;27;20463;-30
2022/09/24 07:49:12;;;;;;;14.48;10.40;;;14.90;86.30;;;;;;5137746;27;20015;-29
2022/09/24 07:51:38;;;;;;;13.25;11.00;;;14.90;86.30;;;;;;5138061;27;20042;-27
2022/09/24 07:54:04;;;;;;;12.70;10.60;;;14.90;86.20;;;;;;5119134;27;20015;-26
2022/09/24 07:56:31;;;;;;;13.82;11.25;;;14.90;86.30;;;;;;5137381;27;20034;-27
2022/09/24 07:58:56;;;;;;;12.27;10.60;;;14.90;86.30;;;;;;5137448;27;20485;-27
2022/09/24 08:01:23;;;;;;;13.07;10.80;;;14.90;86.20;;;;;;5119083;27;20019;-27
2022/09/24 08:03:50;;;;;;;12.48;10.63;;;14.90;86.20;;;;;;5137190;27;20031;-28
2022/09/24 08:06:16;;;;;;;13.38;11.23;;;15.00;86.30;;;;;;5137420;27;20088;-28
2022/09/24 08:08:45;;;;;;;12.02;10.35;;;15.00;86.30;;;;;;5137102;27;20472;-28
2022/09/24 08:11:16;;;;;;;11.73;10.38;;;15.00;86.30;;;;;;5136975;27;20094;-29
2022/09/24 08:13:41;;;;;;;13.35;10.70;;;15.00;86.20;;;;;;5137139;27;20035;-27
2022/09/24 08:16:07;;;;;;;13.77;11.30;;;15.00;86.20;;;;;;5136872;27;20386;-29
2022/09/24 08:18:33;;;;;;;11.23;10.02;;;15.00;86.20;;;;;;5136821;27;20034;-30
2022/09/24 08:21:04;;;;;;;11.98;10.43;;;15.00;86.30;;;;;;5137066;27;20062;-35
2022/09/24 08:23:31;;;;;;;13.02;10.93;;;15.00;86.20;;;;;;5136691;27;20027;-28
2022/09/24 08:25:56;;;;;;;13.95;10.18;;;15.00;86.20;;;;;;5136794;27;20023;-26
2022/09/24 08:28:22;;;;;;;13.25;11.18;;;15.10;86.30;;;;;;5136753;27;20358;-28
2022/09/24 08:30:48;;;;;;;13.52;10.27;;;15.10;86.20;;;;;;5136954;27;20038;-27
2022/09/24 08:33:14;;;;;;;11.02;9.75;;;15.10;86.20;;;;;;5137085;27;20015;-30
2022/09/24 08:35:40;;;;;;;11.65;10.45;;;15.10;86.20;;;;;;5136686;27;20030;-28
2022/09/24 08:38:07;;;;;;;12.27;10.23;;;15.10;86.20;;;;;;5136617;27;20107;-29
2022/09/24 08:40:41;;;;;;;13.32;10.48;;;15.10;86.10;;;;;;5136620;27;20038;-34
2022/09/24 08:43:24;;;;;;;13.23;10.55;;;15.10;86.20;;;;;;5136551;27;20011;-27
2022/09/24 08:48:45;;;;;;;14.55;10.27;;;15.20;86.20;;;;;;5136571;27;20050;-28
2022/09/24 08:51:19;;;;;;;11.50;10.18;;;15.20;86.10;;;;;;5135112;27;20042;-28
2022/09/24 08:53:57;;;;;;;;;;;15.20;86.20;;;;;;5136587;27;20023;-27
2022/09/24 08:56:28;;;;;;;12.90;10.02;;;15.20;86.10;;;;;;5136265;27;20382;-29
2022/09/24 08:59:05;;;;;;;12.10;9.95;;;15.20;86.70;;;;;;5135872;27;20395;-27
2022/09/24 09:01:40;;;;;;;12.75;10.45;;;15.10;86.10;;;;;;5136034;27;20033;-28
2022/09/24 09:04:44;;;;;;;12.50;10.30;;;15.10;86.10;;;;;;5136470;27;20031;-27
2022/09/24 09:07:33;;;;;;;12.38;10.88;;;15.10;86.80;;;;;;5135938;27;20487;-27
2022/09/24 09:10:09;;;;;;;11.88;10.68;;;15.10;86.20;;;;;;5135955;27;20043;-29
2022/09/24 09:12:43;;;;;;;12.38;10.38;;;15.10;86.30;;;;;;5136251;27;20030;-28
2022/09/24 09:15:11;;;;;;;13.25;10.57;;;15.10;86.40;;;;;;5136163;27;20095;-28
2022/09/24 09:18:01;;;;;;;12.30;10.07;;;15.10;86.30;;;;;;5136178;27;20031;-28
2022/09/24 09:20:40;;;;;;;13.43;11.68;;;15.20;86.40;;;;;;5135955;27;20463;-29
2022/09/24 09:23:12;;;;;;;14.02;11.43;;;15.20;86.40;;;;;;5135587;27;20479;-28
2022/09/24 09:25:41;;;;;;;13.75;10.50;;;15.20;86.40;;;;;;5135624;27;20110;-28
2022/09/24 09:28:14;;;;;;;15.10;10.05;;;15.20;86.30;;;;;;5135552;27;20051;-28
2022/09/24 09:31:12;;;;;;;11.10;9.90;;;15.30;86.40;;;;;;5135530;27;20111;-27
2022/09/24 09:34:11;;;;;;;11.07;9.30;;;15.30;86.40;;;;;;5135451;27;20032;-28
2022/09/24 09:37:07;;;;;;;11.48;10.25;;;15.30;86.30;;;;;;5135268;27;20045;-25
2022/09/24 09:39:58;;;;;;;9.80;8.80;;;15.30;86.20;;;;;;5135509;27;20468;-29
2022/09/24 09:42:35;;;;;;;10.18;9.10;;;15.30;86.20;;;;;;5135136;27;20023;-27
2022/09/24 09:45:23;;;;;;;12.48;9.50;;;15.30;86.20;;;;;;5134772;27;20045;-41
2022/09/24 09:47:53;;;;;;;10.18;8.00;;;15.30;86.20;;;;;;5134640;27;20023;-28
2022/09/24 09:50:39;;;;;;;9.55;8.10;;;15.30;86.10;;;;;;5135385;27;20027;-26
2022/09/24 09:53:04;;;;;;;10.10;8.43;;;15.30;86.20;;;;;;5135094;27;20015;-27
2022/09/24 09:55:39;;;;;;;10.63;9.15;;;15.30;86.20;;;;;;5135114;27;20049;-27
2022/09/24 09:58:14;;;;;;;9.98;8.65;;;15.30;86.30;;;;;;5134759;27;20035;-27
2022/09/24 10:00:40;;;;;;;11.15;8.82;;;15.30;86.90;;;;;;5134500;27;20027;-27
2022/09/24 10:03:30;;;;;;;10.13;8.60;;;15.30;86.30;;;;;;5134261;27;20166;-33
2022/09/24 10:06:00;;;;;;;10.07;8.73;;;15.30;86.20;;;;;;5134343;27;20034;-26
2022/09/24 10:08:26;;;;;;;8.82;7.93;;;15.30;86.30;;;;;;5134534;27;20064;-28
2022/09/24 10:10:55;;;;;;;9.45;8.48;;;15.30;86.30;;;;;;5134491;27;20072;-27
2022/09/24 10:13:22;;;;;;;9.95;8.93;;;15.20;86.30;;;;;;5134579;27;20388;-27
2022/09/24 10:15:53;;;;;;;10.50;8.80;;;15.30;86.50;;;;;;5134456;27;20486;-31
2022/09/24 10:18:44;;;;;;;9.63;8.63;;;15.30;86.60;;;;;;5134373;27;20090;-28
2022/09/24 10:21:13;;;;;;;10.90;9.52;;;15.30;86.50;;;;;;5116560;27;20015;-42
2022/09/24 10:23:41;;;;;;;10.82;9.25;;;15.30;86.60;;;;;;5134064;27;20474;-40
2022/09/24 10:26:08;;;;;;;10.57;9.07;;;15.40;86.60;;;;;;5134305;27;20324;-44
2022/09/24 10:31:36;;;;;;;9.57;8.57;;;15.40;86.50;;;;;;5134594;27;20188;-43
2022/09/24 10:34:04;;;;;;;12.35;9.00;;;15.40;86.50;;;;;;5134583;27;20035;-39
2022/09/24 10:36:34;;;;;;;12.35;9.00;;;15.40;86.50;;;;;;5134228;27;20031;-45
2022/09/24 10:39:14;;;;;;;11.40;8.25;;;15.40;86.60;;;;;;5115229;27;20041;-36
2022/09/24 10:41:48;;;;;;;10.82;9.15;;;15.50;86.50;;;;;;5133906;27;20038;-35
2022/09/24 10:44:15;;;;;;;11.63;9.18;;;15.50;86.40;;;;;;5115296;27;20027;-41
2022/09/24 10:46:46;;;;;;;10.65;9.48;;;15.50;86.40;;;;;;5133667;27;20015;-36
2022/09/24 10:49:36;;;;;;;12.68;9.75;;;15.50;86.40;;;;;;5134238;27;20383;-36
2022/09/24 10:52:45;;;;;;;10.20;8.93;;;15.50;86.40;;;;;;5133935;27;20382;-27
2022/09/24 10:55:38;;;;;;;12.48;9.90;;;15.50;86.30;;;;;;5134037;27;20019;-27
2022/09/24 10:58:13;;;;;;;11.47;8.20;;;15.50;86.30;;;;;;5082183;27;20046;-28
2022/09/24 11:01:31;;;;;;;10.88;9.20;;;15.60;86.20;;;;;;5133733;27;20058;-28
2022/09/24 11:04:05;;;;;;;10.25;9.07;;;15.60;86.20;;;;;;5091383;27;20095;-27
2022/09/24 11:07:04;;;;;;;10.65;9.55;;;15.60;86.30;;;;;;5133410;27;20033;-27
2022/09/24 11:09:46;;;;;;;10.82;9.70;;;15.50;86.30;;;;;;5133451;27;20026;-28
2022/09/24 11:12:34;;;;;;;11.35;9.40;;;15.50;86.40;;;;;;5133333;27;20419;-25
2022/09/24 11:15:30;;;;;;;11.68;9.50;;;15.50;86.50;;;;;;5133334;27;20102;-28
2022/09/24 11:18:01;;;;;;;11.93;9.05;;;15.50;86.60;;;;;;5133321;27;20022;-30
2022/09/24 11:20:35;;;;;;;11.77;9.95;;;15.50;86.60;;;;;;5133371;28;20027;-28
2022/09/24 11:23:07;;;;;;;11.30;10.10;;;15.50;86.70;;;;;;5133497;28;20030;-27
2022/09/24 11:25:49;;;;;;;12.25;9.85;;;15.50;86.60;;;;;;5133566;28;20053;-31
2022/09/24 11:28:15;;;;;;;12.90;9.93;;;15.50;86.70;;;;;;5133849;28;20015;-27
2022/09/24 11:31:03;;;;;;;11.27;9.15;;;15.50;86.80;;;;;;5133284;28;20076;-29
2022/09/24 11:33:53;;;;;;;12.35;10.15;;;15.50;86.80;;;;;;5133532;28;20023;-34
2022/09/24 11:36:37;;;;;;;12.70;10.30;;;15.40;86.60;;;;;;5133475;28;20112;-30
2022/09/24 11:39:18;;;;;;;11.50;10.18;;;15.40;86.80;;;;;;5133358;28;20059;-29
2022/09/24 11:42:24;;;;;;;13.05;10.20;;;15.40;86.80;;;;;;5133513;28;20030;-27
2022/09/24 11:45:11;;;;;;;11.18;9.98;;;15.40;86.80;;;;;;5042048;28;20065;-27
2022/09/24 11:47:53;;;;;;;12.75;10.90;;;15.40;86.80;;;;;;5132861;28;20427;-27
2022/09/24 11:50:42;;;;;;;12.48;11.00;;;15.40;86.80;;;;;;5132817;28;20088;-40
2022/09/24 11:53:13;;;;;;;12.93;10.63;;;15.40;86.80;;;;;;5132875;28;20035;-42
2022/09/24 11:55:46;;;;;;;11.65;10.45;;;15.40;86.90;;;;;;5133538;28;20039;-42
2022/09/24 11:58:43;;;;;;;14.23;11.10;;;15.40;86.90;;;;;;5133307;28;20092;-42
2022/09/24 12:01:35;;;;;;;11.25;10.05;;;15.40;86.90;;;;;;5127743;27;20130;-40
2022/09/24 12:04:20;;;;;;;12.43;10.52;;;15.40;86.90;;;;;;5132746;28;20035;-42
2022/09/24 12:07:12;;;;;;;12.35;10.85;;;15.40;86.80;;;;;;5133087;28;20034;-43
2022/09/24 12:09:44;;;;;;;14.50;10.13;;;15.40;86.80;;;;;;5087468;28;20517;-41
2022/09/24 12:12:16;;;;;;;11.63;9.82;;;15.40;86.90;;;;;;5133040;28;20446;-28
2022/09/24 12:14:48;;;;;;;11.85;9.80;;;15.50;87.00;;;;;;5133150;28;20035;-27
2022/09/24 12:17:25;;;;;;;11.55;9.90;;;15.50;87.00;;;;;;5115107;28;20101;-27
2022/09/24 12:19:58;;;;;;;9.93;8.85;;;15.50;86.90;;;;;;5133222;28;20039;-27
2022/09/24 12:22:26;;;;;;;9.73;8.63;;;15.50;86.90;;;;;;5132880;28;20023;-29
2022/09/24 12:24:59;;;;;;;11.38;9.20;;;15.50;86.90;;;;;;5134660;27;20029;-31
2022/09/24 12:27:34;;;;;;;10.75;9.23;;;15.60;86.90;;;;;;5137277;27;20547;-29
2022/09/24 12:33:20;;;;;;;11.10;9.65;;;15.60;86.90;;;;;;5136894;27;20033;-31
2022/09/24 12:36:26;;;;;;;12.35;10.38;;;15.70;87.00;;;;;;5136499;27;20035;-28
2022/09/24 12:39:01;;;;;;;11.93;9.80;;;15.60;86.90;;;;;;5136713;27;20027;-31
2022/09/24 12:42:03;;;;;;;12.90;9.48;;;15.60;86.90;;;;;;5136690;27;20039;-31
2022/09/24 12:44:39;;;;;;;11.18;9.20;;;15.70;87.00;;;;;;5083065;27;20035;-31
2022/09/24 12:47:15;;;;;;;10.57;9.23;;;15.60;87.00;;;;;;5137216;27;20034;-31
2022/09/24 12:49:41;;;;;;;10.80;9.25;;;15.60;87.10;;;;;;5136185;27;20026;-29
2022/09/24 12:52:34;;;;;;;9.88;8.77;;;15.60;87.10;;;;;;5136619;27;20386;-29
2022/09/24 12:55:02;;;;;;;11.13;9.63;;;15.60;87.10;;;;;;5136406;27;20039;-28
2022/09/24 12:57:38;;;;;;;11.02;9.25;;;15.60;87.10;;;;;;5136354;27;20046;-29
2022/09/24 13:00:40;;;;;;;10.50;9.43;;;15.60;87.20;;;;;;5136020;27;20042;-29
2022/09/24 13:03:26;;;;;;;10.43;8.93;;;15.60;87.20;;;;;;5136250;27;20035;-28
2022/09/24 13:05:51;;;;;;;13.27;9.98;;;15.50;87.20;;;;;;5135655;27;20039;-27
2022/09/24 13:08:18;;;;;;;11.88;9.60;;;15.50;87.20;;;;;;5135734;27;20084;-30
2022/09/24 13:10:59;;;;;;;11.70;10.50;;;15.50;87.40;;;;;;5135794;27;20046;-30